sensor_id;sensor_type;location;lat;lon;timestamp;P1;durP1;ratioP1;P2;durP2;ratioP2
67869;SDS011;54673;52.262;6.830;2023-01-29T00:01:12;3.15;;;2.58;;
67869;SDS011;54673;52.262;6.830;2023-01-29T00:03:38;4.20;;;2.75;;
67869;SDS011;54673;52.262;6.830;2023-01-29T00:06:04;4.33;;;2.70;;
67869;SDS011;54673;52.262;6.830;2023-01-29T00:08:34;2.72;;;2.40;;
67869;SDS011;54673;52.262;6.830;2023-01-29T00:11:01;3.57;;;2.53;;
67869;SDS011;54673;52.262;6.830;2023-01-29T00:13:31;3.22;;;2.40;;
67869;SDS011;54673;52.262;6.830;2023-01-29T00:15:58;3.27;;;2.60;;
67869;SDS011;54673;52.262;6.830;2023-01-29T00:18:24;3.97;;;2.80;;
67869;SDS011;54673;52.262;6.830;2023-01-29T00:20:51;4.07;;;2.75;;
67869;SDS011;54673;52.262;6.830;2023-01-29T00:23:17;4.73;;;2.70;;
67869;SDS011;54673;52.262;6.830;2023-01-29T00:25:43;4.10;;;2.78;;
67869;SDS011;54673;52.262;6.830;2023-01-29T00:28:09;4.33;;;2.87;;
67869;SDS011;54673;52.262;6.830;2023-01-29T00:30:35;3.33;;;2.63;;
67869;SDS011;54673;52.262;6.830;2023-01-29T00:33:01;4.82;;;2.30;;
67869;SDS011;54673;52.262;6.830;2023-01-29T00:35:27;3.70;;;2.77;;
67869;SDS011;54673;52.262;6.830;2023-01-29T00:37:56;4.00;;;2.58;;
67869;SDS011;54673;52.262;6.830;2023-01-29T00:40:22;3.57;;;2.60;;
67869;SDS011;54673;52.262;6.830;2023-01-29T00:42:49;3.35;;;2.58;;
67869;SDS011;54673;52.262;6.830;2023-01-29T00:45:34;3.65;;;2.70;;
67869;SDS011;54673;52.262;6.830;2023-01-29T00:48:03;4.53;;;2.63;;
67869;SDS011;54673;52.262;6.830;2023-01-29T00:50:29;3.40;;;2.40;;
67869;SDS011;54673;52.262;6.830;2023-01-29T00:52:55;5.17;;;3.00;;
67869;SDS011;54673;52.262;6.830;2023-01-29T00:55:21;3.40;;;2.55;;
67869;SDS011;54673;52.262;6.830;2023-01-29T00:57:47;4.50;;;2.60;;
67869;SDS011;54673;52.262;6.830;2023-01-29T01:00:14;3.83;;;2.60;;
67869;SDS011;54673;52.262;6.830;2023-01-29T01:02:41;4.35;;;2.80;;
67869;SDS011;54673;52.262;6.830;2023-01-29T01:05:26;4.63;;;3.00;;
67869;SDS011;54673;52.262;6.830;2023-01-29T01:07:53;4.25;;;2.50;;
67869;SDS011;54673;52.262;6.830;2023-01-29T01:10:30;3.50;;;2.43;;
67869;SDS011;54673;52.262;6.830;2023-01-29T01:13:00;3.53;;;2.70;;
67869;SDS011;54673;52.262;6.830;2023-01-29T01:15:33;3.65;;;2.70;;
67869;SDS011;54673;52.262;6.830;2023-01-29T01:18:01;4.20;;;2.53;;
67869;SDS011;54673;52.262;6.830;2023-01-29T01:20:29;3.25;;;2.53;;
67869;SDS011;54673;52.262;6.830;2023-01-29T01:22:55;3.30;;;2.60;;
67869;SDS011;54673;52.262;6.830;2023-01-29T01:25:22;3.42;;;2.67;;
67869;SDS011;54673;52.262;6.830;2023-01-29T01:27:53;4.77;;;3.10;;
67869;SDS011;54673;52.262;6.830;2023-01-29T01:30:19;3.78;;;2.63;;
67869;SDS011;54673;52.262;6.830;2023-01-29T01:32:45;4.47;;;2.85;;
67869;SDS011;54673;52.262;6.830;2023-01-29T01:35:11;4.37;;;2.90;;
67869;SDS011;54673;52.262;6.830;2023-01-29T01:37:40;4.13;;;2.50;;
67869;SDS011;54673;52.262;6.830;2023-01-29T01:40:07;4.30;;;2.70;;
67869;SDS011;54673;52.262;6.830;2023-01-29T01:42:42;4.28;;;2.58;;
67869;SDS011;54673;52.262;6.830;2023-01-29T01:47:46;4.35;;;2.80;;
67869;SDS011;54673;52.262;6.830;2023-01-29T01:50:20;3.90;;;2.80;;
67869;SDS011;54673;52.262;6.830;2023-01-29T01:52:54;4.70;;;2.60;;
67869;SDS011;54673;52.262;6.830;2023-01-29T01:55:25;3.65;;;2.88;;
67869;SDS011;54673;52.262;6.830;2023-01-29T01:57:55;5.27;;;2.90;;
67869;SDS011;54673;52.262;6.830;2023-01-29T02:00:26;3.88;;;2.67;;
67869;SDS011;54673;52.262;6.830;2023-01-29T02:02:52;4.00;;;2.93;;
67869;SDS011;54673;52.262;6.830;2023-01-29T02:05:37;3.80;;;2.80;;
67869;SDS011;54673;52.262;6.830;2023-01-29T02:08:35;4.00;;;2.80;;
67869;SDS011;54673;52.262;6.830;2023-01-29T02:12:05;5.20;;;2.70;;
67869;SDS011;54673;52.262;6.830;2023-01-29T02:14:34;5.25;;;2.88;;
67869;SDS011;54673;52.262;6.830;2023-01-29T02:17:04;3.78;;;2.45;;
67869;SDS011;54673;52.262;6.830;2023-01-29T02:28:34;4.25;;;3.00;;
67869;SDS011;54673;52.262;6.830;2023-01-29T02:36:28;3.90;;;2.70;;
67869;SDS011;54673;52.262;6.830;2023-01-29T02:39:12;4.83;;;2.87;;
67869;SDS011;54673;52.262;6.830;2023-01-29T02:42:08;4.45;;;2.67;;
67869;SDS011;54673;52.262;6.830;2023-01-29T02:44:50;4.70;;;3.10;;
67869;SDS011;54673;52.262;6.830;2023-01-29T02:50:13;4.13;;;2.65;;
67869;SDS011;54673;52.262;6.830;2023-01-29T02:55:50;3.72;;;2.67;;
67869;SDS011;54673;52.262;6.830;2023-01-29T03:00:52;4.47;;;2.70;;
67869;SDS011;54673;52.262;6.830;2023-01-29T03:03:24;4.25;;;2.70;;
67869;SDS011;54673;52.262;6.830;2023-01-29T03:08:44;3.85;;;2.58;;
67869;SDS011;54673;52.262;6.830;2023-01-29T03:11:23;3.50;;;2.45;;
67869;SDS011;54673;52.262;6.830;2023-01-29T03:13:56;3.60;;;2.80;;
67869;SDS011;54673;52.262;6.830;2023-01-29T03:16:25;4.60;;;2.92;;
67869;SDS011;54673;52.262;6.830;2023-01-29T03:19:37;3.80;;;2.33;;
67869;SDS011;54673;52.262;6.830;2023-01-29T03:21:56;4.25;;;2.70;;
67869;SDS011;54673;52.262;6.830;2023-01-29T03:24:34;4.45;;;2.53;;
67869;SDS011;54673;52.262;6.830;2023-01-29T03:27:36;4.30;;;2.67;;
67869;SDS011;54673;52.262;6.830;2023-01-29T03:30:46;6.22;;;3.22;;
67869;SDS011;54673;52.262;6.830;2023-01-29T03:33:34;3.73;;;2.80;;
67869;SDS011;54673;52.262;6.830;2023-01-29T03:36:17;4.00;;;2.78;;
67869;SDS011;54673;52.262;6.830;2023-01-29T03:39:09;5.15;;;3.03;;
67869;SDS011;54673;52.262;6.830;2023-01-29T03:41:42;4.63;;;2.73;;
67869;SDS011;54673;52.262;6.830;2023-01-29T03:44:24;3.95;;;2.53;;
67869;SDS011;54673;52.262;6.830;2023-01-29T03:47:13;4.10;;;2.77;;
67869;SDS011;54673;52.262;6.830;2023-01-29T03:50:00;3.63;;;2.55;;
67869;SDS011;54673;52.262;6.830;2023-01-29T03:52:39;4.00;;;2.65;;
67869;SDS011;54673;52.262;6.830;2023-01-29T03:55:12;3.50;;;2.53;;
67869;SDS011;54673;52.262;6.830;2023-01-29T04:00:41;4.57;;;2.60;;
67869;SDS011;54673;52.262;6.830;2023-01-29T04:03:33;5.10;;;3.00;;
67869;SDS011;54673;52.262;6.830;2023-01-29T04:08:55;6.47;;;3.03;;
67869;SDS011;54673;52.262;6.830;2023-01-29T04:11:26;4.10;;;2.72;;
67869;SDS011;54673;52.262;6.830;2023-01-29T04:13:55;5.20;;;3.00;;
67869;SDS011;54673;52.262;6.830;2023-01-29T04:16:30;5.00;;;2.72;;
67869;SDS011;54673;52.262;6.830;2023-01-29T04:18:59;4.05;;;2.53;;
67869;SDS011;54673;52.262;6.830;2023-01-29T04:21:25;4.70;;;3.17;;
67869;SDS011;54673;52.262;6.830;2023-01-29T04:23:51;4.22;;;2.53;;
67869;SDS011;54673;52.262;6.830;2023-01-29T04:29:16;4.05;;;2.85;;
67869;SDS011;54673;52.262;6.830;2023-01-29T04:37:49;4.03;;;2.80;;
67869;SDS011;54673;52.262;6.830;2023-01-29T04:46:12;4.20;;;3.00;;
67869;SDS011;54673;52.262;6.830;2023-01-29T04:48:52;4.30;;;2.85;;
67869;SDS011;54673;52.262;6.830;2023-01-29T04:51:53;4.57;;;2.87;;
67869;SDS011;54673;52.262;6.830;2023-01-29T04:54:47;4.68;;;3.03;;
67869;SDS011;54673;52.262;6.830;2023-01-29T04:57:21;4.85;;;3.35;;
67869;SDS011;54673;52.262;6.830;2023-01-29T04:59:57;4.87;;;3.30;;
67869;SDS011;54673;52.262;6.830;2023-01-29T05:02:37;4.32;;;2.90;;
67869;SDS011;54673;52.262;6.830;2023-01-29T05:05:05;4.27;;;2.80;;
67869;SDS011;54673;52.262;6.830;2023-01-29T05:07:32;5.13;;;2.83;;
67869;SDS011;54673;52.262;6.830;2023-01-29T05:10:02;4.07;;;2.80;;
67869;SDS011;54673;52.262;6.830;2023-01-29T05:12:30;3.77;;;2.90;;
67869;SDS011;54673;52.262;6.830;2023-01-29T05:14:59;5.50;;;3.00;;
67869;SDS011;54673;52.262;6.830;2023-01-29T05:17:29;4.80;;;3.17;;
67869;SDS011;54673;52.262;6.830;2023-01-29T05:19:55;5.70;;;2.90;;
67869;SDS011;54673;52.262;6.830;2023-01-29T05:22:21;4.73;;;3.07;;
67869;SDS011;54673;52.262;6.830;2023-01-29T05:24:47;6.13;;;3.03;;
67869;SDS011;54673;52.262;6.830;2023-01-29T05:27:20;3.80;;;2.60;;
67869;SDS011;54673;52.262;6.830;2023-01-29T05:30:09;4.73;;;2.97;;
67869;SDS011;54673;52.262;6.830;2023-01-29T05:32:35;4.78;;;3.03;;
67869;SDS011;54673;52.262;6.830;2023-01-29T05:35:01;4.57;;;2.93;;
67869;SDS011;54673;52.262;6.830;2023-01-29T05:37:26;4.65;;;3.17;;
67869;SDS011;54673;52.262;6.830;2023-01-29T05:39:52;4.50;;;2.93;;
67869;SDS011;54673;52.262;6.830;2023-01-29T05:42:17;4.50;;;3.00;;
67869;SDS011;54673;52.262;6.830;2023-01-29T05:44:43;3.90;;;2.90;;
67869;SDS011;54673;52.262;6.830;2023-01-29T05:47:09;4.63;;;2.90;;
67869;SDS011;54673;52.262;6.830;2023-01-29T05:49:34;4.40;;;3.03;;
67869;SDS011;54673;52.262;6.830;2023-01-29T05:52:00;4.13;;;2.73;;
67869;SDS011;54673;52.262;6.830;2023-01-29T05:54:26;4.40;;;2.30;;
67869;SDS011;54673;52.262;6.830;2023-01-29T05:56:51;3.87;;;2.63;;
67869;SDS011;54673;52.262;6.830;2023-01-29T05:59:17;4.77;;;3.13;;
67869;SDS011;54673;52.262;6.830;2023-01-29T06:01:42;3.93;;;2.43;;
67869;SDS011;54673;52.262;6.830;2023-01-29T06:04:08;4.23;;;2.93;;
67869;SDS011;54673;52.262;6.830;2023-01-29T06:06:33;4.25;;;2.60;;
67869;SDS011;54673;52.262;6.830;2023-01-29T06:08:59;4.27;;;2.70;;
67869;SDS011;54673;52.262;6.830;2023-01-29T06:11:24;5.07;;;2.77;;
67869;SDS011;54673;52.262;6.830;2023-01-29T06:13:50;4.30;;;2.40;;
67869;SDS011;54673;52.262;6.830;2023-01-29T06:16:16;3.87;;;2.70;;
67869;SDS011;54673;52.262;6.830;2023-01-29T06:18:42;3.53;;;2.55;;
67869;SDS011;54673;52.262;6.830;2023-01-29T06:21:08;5.10;;;2.80;;
67869;SDS011;54673;52.262;6.830;2023-01-29T06:23:36;4.28;;;3.08;;
67869;SDS011;54673;52.262;6.830;2023-01-29T06:26:03;4.90;;;2.67;;
67869;SDS011;54673;52.262;6.830;2023-01-29T06:28:30;5.00;;;2.65;;
67869;SDS011;54673;52.262;6.830;2023-01-29T06:30:56;5.20;;;2.87;;
67869;SDS011;54673;52.262;6.830;2023-01-29T06:33:23;3.97;;;2.75;;
67869;SDS011;54673;52.262;6.830;2023-01-29T06:35:53;4.82;;;2.80;;
67869;SDS011;54673;52.262;6.830;2023-01-29T06:38:23;4.53;;;2.73;;
67869;SDS011;54673;52.262;6.830;2023-01-29T06:40:49;4.40;;;2.67;;
67869;SDS011;54673;52.262;6.830;2023-01-29T06:43:15;3.43;;;2.40;;
67869;SDS011;54673;52.262;6.830;2023-01-29T06:45:50;7.18;;;3.17;;
67869;SDS011;54673;52.262;6.830;2023-01-29T06:48:17;5.10;;;2.90;;
67869;SDS011;54673;52.262;6.830;2023-01-29T06:50:43;4.63;;;3.22;;
67869;SDS011;54673;52.262;6.830;2023-01-29T06:53:09;3.97;;;2.35;;
67869;SDS011;54673;52.262;6.830;2023-01-29T06:55:35;4.77;;;2.63;;
67869;SDS011;54673;52.262;6.830;2023-01-29T06:58:08;3.95;;;2.40;;
67869;SDS011;54673;52.262;6.830;2023-01-29T07:00:34;3.80;;;2.70;;
67869;SDS011;54673;52.262;6.830;2023-01-29T07:03:01;4.18;;;2.80;;
67869;SDS011;54673;52.262;6.830;2023-01-29T07:05:27;4.50;;;3.00;;
67869;SDS011;54673;52.262;6.830;2023-01-29T07:07:53;3.83;;;2.60;;
67869;SDS011;54673;52.262;6.830;2023-01-29T07:10:19;3.92;;;2.65;;
67869;SDS011;54673;52.262;6.830;2023-01-29T07:12:45;3.60;;;2.50;;
67869;SDS011;54673;52.262;6.830;2023-01-29T07:15:11;4.07;;;2.80;;
67869;SDS011;54673;52.262;6.830;2023-01-29T07:17:37;7.73;;;2.40;;
67869;SDS011;54673;52.262;6.830;2023-01-29T07:20:03;4.43;;;2.50;;
67869;SDS011;54673;52.262;6.830;2023-01-29T07:22:30;4.40;;;2.75;;
67869;SDS011;54673;52.262;6.830;2023-01-29T07:24:56;3.57;;;2.30;;
67869;SDS011;54673;52.262;6.830;2023-01-29T07:27:21;4.05;;;2.50;;
67869;SDS011;54673;52.262;6.830;2023-01-29T07:29:47;3.53;;;2.40;;
67869;SDS011;54673;52.262;6.830;2023-01-29T07:32:12;4.37;;;2.80;;
67869;SDS011;54673;52.262;6.830;2023-01-29T07:34:38;4.88;;;2.90;;
67869;SDS011;54673;52.262;6.830;2023-01-29T07:37:04;4.57;;;2.97;;
67869;SDS011;54673;52.262;6.830;2023-01-29T07:39:30;4.70;;;2.38;;
67869;SDS011;54673;52.262;6.830;2023-01-29T07:41:56;6.27;;;2.83;;
67869;SDS011;54673;52.262;6.830;2023-01-29T07:44:21;4.07;;;2.53;;
67869;SDS011;54673;52.262;6.830;2023-01-29T07:46:47;4.93;;;3.00;;
67869;SDS011;54673;52.262;6.830;2023-01-29T07:49:13;4.47;;;2.80;;
67869;SDS011;54673;52.262;6.830;2023-01-29T07:51:38;4.23;;;2.60;;
67869;SDS011;54673;52.262;6.830;2023-01-29T07:54:04;4.80;;;3.22;;
67869;SDS011;54673;52.262;6.830;2023-01-29T07:56:30;4.10;;;2.50;;
67869;SDS011;54673;52.262;6.830;2023-01-29T07:58:56;3.47;;;2.70;;
67869;SDS011;54673;52.262;6.830;2023-01-29T08:01:21;4.77;;;2.53;;
67869;SDS011;54673;52.262;6.830;2023-01-29T08:03:47;4.07;;;2.67;;
67869;SDS011;54673;52.262;6.830;2023-01-29T08:06:12;4.20;;;2.88;;
67869;SDS011;54673;52.262;6.830;2023-01-29T08:08:38;3.60;;;2.57;;
67869;SDS011;54673;52.262;6.830;2023-01-29T08:11:04;3.63;;;2.37;;
67869;SDS011;54673;52.262;6.830;2023-01-29T08:13:30;3.92;;;2.65;;
67869;SDS011;54673;52.262;6.830;2023-01-29T08:16:02;3.85;;;2.60;;
67869;SDS011;54673;52.262;6.830;2023-01-29T08:18:28;5.53;;;3.10;;
67869;SDS011;54673;52.262;6.830;2023-01-29T08:21:01;4.45;;;2.70;;
67869;SDS011;54673;52.262;6.830;2023-01-29T08:23:28;4.33;;;2.50;;
67869;SDS011;54673;52.262;6.830;2023-01-29T08:25:54;4.72;;;2.78;;
67869;SDS011;54673;52.262;6.830;2023-01-29T08:28:19;3.93;;;2.97;;
67869;SDS011;54673;52.262;6.830;2023-01-29T08:30:45;4.22;;;2.72;;
67869;SDS011;54673;52.262;6.830;2023-01-29T08:33:11;5.13;;;2.97;;
67869;SDS011;54673;52.262;6.830;2023-01-29T08:35:37;5.57;;;2.95;;
67869;SDS011;54673;52.262;6.830;2023-01-29T08:38:03;4.27;;;2.53;;
67869;SDS011;54673;52.262;6.830;2023-01-29T08:40:30;4.85;;;2.30;;
67869;SDS011;54673;52.262;6.830;2023-01-29T08:42:58;3.67;;;2.40;;
67869;SDS011;54673;52.262;6.830;2023-01-29T08:45:34;3.78;;;2.33;;
67869;SDS011;54673;52.262;6.830;2023-01-29T08:48:02;4.30;;;2.30;;
67869;SDS011;54673;52.262;6.830;2023-01-29T08:50:28;3.80;;;2.20;;
67869;SDS011;54673;52.262;6.830;2023-01-29T08:52:58;4.50;;;2.33;;
67869;SDS011;54673;52.262;6.830;2023-01-29T08:55:25;5.37;;;2.50;;
67869;SDS011;54673;52.262;6.830;2023-01-29T08:57:51;4.97;;;2.15;;
67869;SDS011;54673;52.262;6.830;2023-01-29T09:00:17;7.60;;;2.43;;
67869;SDS011;54673;52.262;6.830;2023-01-29T09:02:43;6.25;;;2.53;;
67869;SDS011;54673;52.262;6.830;2023-01-29T09:05:09;6.33;;;2.90;;
67869;SDS011;54673;52.262;6.830;2023-01-29T09:07:34;5.32;;;2.22;;
67869;SDS011;54673;52.262;6.830;2023-01-29T09:10:00;4.83;;;2.67;;
67869;SDS011;54673;52.262;6.830;2023-01-29T09:12:26;6.95;;;2.35;;
67869;SDS011;54673;52.262;6.830;2023-01-29T09:14:51;4.73;;;2.60;;
67869;SDS011;54673;52.262;6.830;2023-01-29T09:17:17;4.75;;;2.60;;
67869;SDS011;54673;52.262;6.830;2023-01-29T09:19:43;6.37;;;3.00;;
67869;SDS011;54673;52.262;6.830;2023-01-29T09:22:08;8.30;;;2.53;;
67869;SDS011;54673;52.262;6.830;2023-01-29T09:24:35;5.73;;;2.70;;
67869;SDS011;54673;52.262;6.830;2023-01-29T09:27:00;3.83;;;2.58;;
67869;SDS011;54673;52.262;6.830;2023-01-29T09:29:26;5.00;;;2.57;;
67869;SDS011;54673;52.262;6.830;2023-01-29T09:31:51;5.07;;;2.40;;
67869;SDS011;54673;52.262;6.830;2023-01-29T09:34:17;5.27;;;2.30;;
67869;SDS011;54673;52.262;6.830;2023-01-29T09:36:43;3.50;;;2.20;;
67869;SDS011;54673;52.262;6.830;2023-01-29T09:39:08;6.47;;;2.30;;
67869;SDS011;54673;52.262;6.830;2023-01-29T09:44:39;3.88;;;2.50;;
67869;SDS011;54673;52.262;6.830;2023-01-29T09:47:28;3.05;;;2.28;;
67869;SDS011;54673;52.262;6.830;2023-01-29T09:49:58;5.73;;;2.57;;
67869;SDS011;54673;52.262;6.830;2023-01-29T09:57:40;5.00;;;2.20;;
67869;SDS011;54673;52.262;6.830;2023-01-29T10:00:12;3.40;;;2.15;;
67869;SDS011;54673;52.262;6.830;2023-01-29T10:02:51;5.87;;;2.33;;
67869;SDS011;54673;52.262;6.830;2023-01-29T10:14:36;4.75;;;2.40;;
67869;SDS011;54673;52.262;6.830;2023-01-29T10:22:59;3.33;;;2.00;;
67869;SDS011;54673;52.262;6.830;2023-01-29T10:25:39;4.10;;;2.25;;
67869;SDS011;54673;52.262;6.830;2023-01-29T10:30:48;4.00;;;2.33;;
67869;SDS011;54673;52.262;6.830;2023-01-29T10:33:34;5.05;;;2.20;;
67869;SDS011;54673;52.262;6.830;2023-01-29T10:36:03;8.43;;;2.20;;
67869;SDS011;54673;52.262;6.830;2023-01-29T10:41:39;5.07;;;2.55;;
67869;SDS011;54673;52.262;6.830;2023-01-29T10:44:18;5.30;;;2.60;;
67869;SDS011;54673;52.262;6.830;2023-01-29T10:47:16;5.47;;;2.22;;
67869;SDS011;54673;52.262;6.830;2023-01-29T10:57:58;3.60;;;2.10;;
67869;SDS011;54673;52.262;6.830;2023-01-29T11:00:34;6.87;;;2.70;;
67869;SDS011;54673;52.262;6.830;2023-01-29T11:03:21;8.07;;;2.08;;
67869;SDS011;54673;52.262;6.830;2023-01-29T11:05:55;3.92;;;2.00;;
67869;SDS011;54673;52.262;6.830;2023-01-29T11:11:33;4.03;;;2.00;;
67869;SDS011;54673;52.262;6.830;2023-01-29T11:17:03;4.90;;;1.83;;
67869;SDS011;54673;52.262;6.830;2023-01-29T11:19:39;7.30;;;1.90;;
67869;SDS011;54673;52.262;6.830;2023-01-29T11:22:11;3.38;;;1.80;;
67869;SDS011;54673;52.262;6.830;2023-01-29T11:24:39;4.22;;;1.77;;
67869;SDS011;54673;52.262;6.830;2023-01-29T11:27:12;4.47;;;1.67;;
67869;SDS011;54673;52.262;6.830;2023-01-29T11:29:44;3.20;;;2.00;;
67869;SDS011;54673;52.262;6.830;2023-01-29T11:32:13;5.93;;;2.10;;
67869;SDS011;54673;52.262;6.830;2023-01-29T11:34:55;3.58;;;2.15;;
67869;SDS011;54673;52.262;6.830;2023-01-29T11:37:21;3.45;;;1.83;;
67869;SDS011;54673;52.262;6.830;2023-01-29T11:39:46;3.03;;;1.90;;
67869;SDS011;54673;52.262;6.830;2023-01-29T11:42:18;2.47;;;2.00;;
67869;SDS011;54673;52.262;6.830;2023-01-29T11:44:45;3.20;;;2.00;;
67869;SDS011;54673;52.262;6.830;2023-01-29T11:49:44;4.47;;;2.33;;
67869;SDS011;54673;52.262;6.830;2023-01-29T11:52:14;3.13;;;2.00;;
67869;SDS011;54673;52.262;6.830;2023-01-29T11:54:53;3.28;;;1.95;;
67869;SDS011;54673;52.262;6.830;2023-01-29T11:57:27;3.17;;;2.00;;
67869;SDS011;54673;52.262;6.830;2023-01-29T11:59:59;4.13;;;1.70;;
67869;SDS011;54673;52.262;6.830;2023-01-29T12:05:13;2.42;;;1.73;;
67869;SDS011;54673;52.262;6.830;2023-01-29T12:07:41;4.90;;;1.67;;
67869;SDS011;54673;52.262;6.830;2023-01-29T12:10:29;3.73;;;1.60;;
67869;SDS011;54673;52.262;6.830;2023-01-29T12:15:33;4.87;;;2.00;;
67869;SDS011;54673;52.262;6.830;2023-01-29T12:20:30;3.13;;;1.80;;
67869;SDS011;54673;52.262;6.830;2023-01-29T12:23:24;6.30;;;2.30;;
67869;SDS011;54673;52.262;6.830;2023-01-29T12:31:17;5.18;;;2.00;;
67869;SDS011;54673;52.262;6.830;2023-01-29T12:33:56;6.50;;;2.47;;
67869;SDS011;54673;52.262;6.830;2023-01-29T12:36:32;4.45;;;2.60;;
67869;SDS011;54673;52.262;6.830;2023-01-29T12:39:19;3.63;;;2.23;;
67869;SDS011;54673;52.262;6.830;2023-01-29T12:41:48;4.80;;;2.30;;
67869;SDS011;54673;52.262;6.830;2023-01-29T12:44:34;3.88;;;2.28;;
67869;SDS011;54673;52.262;6.830;2023-01-29T12:47:06;4.73;;;2.17;;
67869;SDS011;54673;52.262;6.830;2023-01-29T12:49:56;4.43;;;2.60;;
67869;SDS011;54673;52.262;6.830;2023-01-29T12:57:57;5.85;;;2.38;;
67869;SDS011;54673;52.262;6.830;2023-01-29T13:00:32;4.50;;;2.23;;
67869;SDS011;54673;52.262;6.830;2023-01-29T13:06:07;4.80;;;2.80;;
67869;SDS011;54673;52.262;6.830;2023-01-29T13:14:14;6.03;;;2.00;;
67869;SDS011;54673;52.262;6.830;2023-01-29T13:16:47;5.75;;;2.35;;
67869;SDS011;54673;52.262;6.830;2023-01-29T13:19:30;5.57;;;2.30;;
67869;SDS011;54673;52.262;6.830;2023-01-29T13:22:01;3.25;;;2.00;;
67869;SDS011;54673;52.262;6.830;2023-01-29T13:24:34;4.90;;;2.03;;
67869;SDS011;54673;52.262;6.830;2023-01-29T13:27:03;2.72;;;1.90;;
67869;SDS011;54673;52.262;6.830;2023-01-29T13:29:30;3.35;;;2.03;;
67869;SDS011;54673;52.262;6.830;2023-01-29T13:32:01;5.97;;;2.10;;
67869;SDS011;54673;52.262;6.830;2023-01-29T13:34:29;5.13;;;2.00;;
67869;SDS011;54673;52.262;6.830;2023-01-29T13:36:58;3.40;;;1.87;;
67869;SDS011;54673;52.262;6.830;2023-01-29T13:41:55;2.42;;;1.90;;
67869;SDS011;54673;52.262;6.830;2023-01-29T13:44:26;3.13;;;1.70;;
67869;SDS011;54673;52.262;6.830;2023-01-29T13:46:53;2.90;;;1.67;;
67869;SDS011;54673;52.262;6.830;2023-01-29T13:49:25;4.43;;;2.10;;
67869;SDS011;54673;52.262;6.830;2023-01-29T13:51:51;4.63;;;1.90;;
67869;SDS011;54673;52.262;6.830;2023-01-29T13:54:20;2.72;;;1.70;;
67869;SDS011;54673;52.262;6.830;2023-01-29T13:56:56;3.63;;;1.77;;
67869;SDS011;54673;52.262;6.830;2023-01-29T13:59:24;3.08;;;1.83;;
67869;SDS011;54673;52.262;6.830;2023-01-29T14:05:05;2.47;;;1.60;;
67869;SDS011;54673;52.262;6.830;2023-01-29T14:10:26;2.90;;;1.70;;
67869;SDS011;54673;52.262;6.830;2023-01-29T14:15:29;2.17;;;1.50;;
67869;SDS011;54673;52.262;6.830;2023-01-29T14:18:01;2.72;;;1.60;;
67869;SDS011;54673;52.262;6.830;2023-01-29T14:20:36;2.40;;;1.55;;
67869;SDS011;54673;52.262;6.830;2023-01-29T14:23:07;4.73;;;1.60;;
67869;SDS011;54673;52.262;6.830;2023-01-29T14:25:47;3.45;;;1.90;;
67869;SDS011;54673;52.262;6.830;2023-01-29T14:28:14;2.53;;;1.87;;
67869;SDS011;54673;52.262;6.830;2023-01-29T14:30:46;2.95;;;1.75;;
67869;SDS011;54673;52.262;6.830;2023-01-29T14:33:56;2.80;;;1.58;;
67869;SDS011;54673;52.262;6.830;2023-01-29T14:36:08;2.27;;;1.80;;
67869;SDS011;54673;52.262;6.830;2023-01-29T14:38:39;3.10;;;1.77;;
67869;SDS011;54673;52.262;6.830;2023-01-29T14:41:23;2.50;;;1.57;;
67869;SDS011;54673;52.262;6.830;2023-01-29T14:43:49;3.72;;;2.00;;
67869;SDS011;54673;52.262;6.830;2023-01-29T14:48:59;4.37;;;1.70;;
67869;SDS011;54673;52.262;6.830;2023-01-29T14:51:25;2.55;;;1.30;;
67869;SDS011;54673;52.262;6.830;2023-01-29T14:54:03;2.67;;;2.00;;
67869;SDS011;54673;52.262;6.830;2023-01-29T14:56:44;2.53;;;1.70;;
67869;SDS011;54673;52.262;6.830;2023-01-29T14:59:28;2.35;;;1.63;;
67869;SDS011;54673;52.262;6.830;2023-01-29T15:02:03;2.20;;;1.60;;
67869;SDS011;54673;52.262;6.830;2023-01-29T15:04:45;1.88;;;1.60;;
67869;SDS011;54673;52.262;6.830;2023-01-29T15:07:19;2.43;;;1.70;;
67869;SDS011;54673;52.262;6.830;2023-01-29T15:20:37;2.80;;;1.77;;
67869;SDS011;54673;52.262;6.830;2023-01-29T15:23:23;3.28;;;1.70;;
67869;SDS011;54673;52.262;6.830;2023-01-29T15:26:00;2.40;;;1.55;;
67869;SDS011;54673;52.262;6.830;2023-01-29T15:28:29;2.30;;;1.73;;
67869;SDS011;54673;52.262;6.830;2023-01-29T15:30:58;2.92;;;1.73;;
67869;SDS011;54673;52.262;6.830;2023-01-29T15:33:25;5.17;;;1.70;;
67869;SDS011;54673;52.262;6.830;2023-01-29T15:35:55;2.38;;;1.52;;
67869;SDS011;54673;52.262;6.830;2023-01-29T15:38:24;2.05;;;1.60;;
67869;SDS011;54673;52.262;6.830;2023-01-29T15:43:50;2.70;;;1.88;;
67869;SDS011;54673;52.262;6.830;2023-01-29T15:46:23;2.40;;;1.83;;
67869;SDS011;54673;52.262;6.830;2023-01-29T15:48:51;2.25;;;1.88;;
67869;SDS011;54673;52.262;6.830;2023-01-29T15:51:26;2.75;;;1.70;;
67869;SDS011;54673;52.262;6.830;2023-01-29T15:53:55;2.67;;;1.73;;
67869;SDS011;54673;52.262;6.830;2023-01-29T15:56:25;3.55;;;2.00;;
67869;SDS011;54673;52.262;6.830;2023-01-29T15:58:56;4.43;;;1.70;;
67869;SDS011;54673;52.262;6.830;2023-01-29T16:01:28;2.30;;;1.70;;
67869;SDS011;54673;52.262;6.830;2023-01-29T16:03:54;3.25;;;1.77;;
67869;SDS011;54673;52.262;6.830;2023-01-29T16:06:22;2.57;;;1.73;;
67869;SDS011;54673;52.262;6.830;2023-01-29T16:08:52;2.50;;;2.05;;
67869;SDS011;54673;52.262;6.830;2023-01-29T16:11:18;2.20;;;1.87;;
67869;SDS011;54673;52.262;6.830;2023-01-29T16:13:45;2.50;;;1.90;;
67869;SDS011;54673;52.262;6.830;2023-01-29T16:18:40;2.40;;;1.80;;
67869;SDS011;54673;52.262;6.830;2023-01-29T16:26:34;4.43;;;2.42;;
67869;SDS011;54673;52.262;6.830;2023-01-29T16:29:05;6.97;;;2.10;;
67869;SDS011;54673;52.262;6.830;2023-01-29T16:31:35;8.52;;;2.33;;
67869;SDS011;54673;52.262;6.830;2023-01-29T16:34:06;6.05;;;2.30;;
67869;SDS011;54673;52.262;6.830;2023-01-29T16:36:34;6.43;;;2.00;;
67869;SDS011;54673;52.262;6.830;2023-01-29T16:39:01;3.10;;;1.95;;
67869;SDS011;54673;52.262;6.830;2023-01-29T16:41:31;4.33;;;2.17;;
67869;SDS011;54673;52.262;6.830;2023-01-29T16:46:47;5.25;;;2.25;;
67869;SDS011;54673;52.262;6.830;2023-01-29T16:51:51;3.83;;;2.20;;
67869;SDS011;54673;52.262;6.830;2023-01-29T16:54:19;4.47;;;2.07;;
67869;SDS011;54673;52.262;6.830;2023-01-29T16:56:47;4.20;;;1.75;;
67869;SDS011;54673;52.262;6.830;2023-01-29T16:59:17;3.78;;;2.10;;
67869;SDS011;54673;52.262;6.830;2023-01-29T17:02:00;3.53;;;2.10;;
67869;SDS011;54673;52.262;6.830;2023-01-29T17:04:26;3.08;;;2.05;;
67869;SDS011;54673;52.262;6.830;2023-01-29T17:06:56;3.93;;;1.90;;
67869;SDS011;54673;52.262;6.830;2023-01-29T17:09:34;4.05;;;2.30;;
67869;SDS011;54673;52.262;6.830;2023-01-29T17:12:02;2.97;;;1.85;;
67869;SDS011;54673;52.262;6.830;2023-01-29T17:14:31;4.33;;;2.27;;
67869;SDS011;54673;52.262;6.830;2023-01-29T17:17:05;3.40;;;2.25;;
67869;SDS011;54673;52.262;6.830;2023-01-29T17:19:38;2.67;;;1.93;;
67869;SDS011;54673;52.262;6.830;2023-01-29T17:22:04;2.45;;;1.80;;
67869;SDS011;54673;52.262;6.830;2023-01-29T17:24:32;3.30;;;2.00;;
67869;SDS011;54673;52.262;6.830;2023-01-29T17:26:59;4.10;;;1.90;;
67869;SDS011;54673;52.262;6.830;2023-01-29T17:29:26;3.13;;;1.98;;
67869;SDS011;54673;52.262;6.830;2023-01-29T17:31:54;4.40;;;2.20;;
67869;SDS011;54673;52.262;6.830;2023-01-29T17:34:20;3.35;;;2.10;;
67869;SDS011;54673;52.262;6.830;2023-01-29T17:36:45;3.57;;;1.93;;
67869;SDS011;54673;52.262;6.830;2023-01-29T17:39:19;2.90;;;2.13;;
67869;SDS011;54673;52.262;6.830;2023-01-29T17:41:47;4.70;;;2.22;;
67869;SDS011;54673;52.262;6.830;2023-01-29T17:44:14;4.27;;;2.67;;
67869;SDS011;54673;52.262;6.830;2023-01-29T17:46:40;3.80;;;2.13;;
67869;SDS011;54673;52.262;6.830;2023-01-29T17:49:26;2.90;;;2.10;;
67869;SDS011;54673;52.262;6.830;2023-01-29T17:51:54;4.88;;;2.30;;
67869;SDS011;54673;52.262;6.830;2023-01-29T17:54:20;3.67;;;2.30;;